Time;durP1;ratioP1;P1;durP2;ratioP2;P2;SDS_P1;SDS_P2;PMS_P1;PMS_P2;Temp;Humidity;BMP_temperature;BMP_pressure;BME280_temperature;BME280_humidity;BME280_pressure;Samples;Min_cycle;Max_cycle;Signal;HPM_P1;HPM_P2
2020/12/03 00:01:00;;;;;;;82.72;45.00;;;-0.10;84.50;;;;;;5091847;28;20444;-74
2020/12/03 00:03:36;;;;;;;82.95;44.10;;;-0.10;84.70;;;;;;5087594;28;20410;-74
2020/12/03 00:06:08;;;;;;;77.65;42.78;;;-0.10;84.30;;;;;;5092416;28;20398;-74
2020/12/03 00:08:38;;;;;;;80.53;43.33;;;-0.10;84.30;;;;;;5089014;28;20418;-75
2020/12/03 00:11:05;;;;;;;76.03;42.10;;;-0.10;84.50;;;;;;5091871;28;20406;-74
2020/12/03 00:13:34;;;;;;;76.60;41.63;;;-0.10;84.00;;;;;;5088016;28;20507;-74
2020/12/03 00:16:02;;;;;;;70.82;40.03;;;-0.10;83.80;;;;;;5091120;28;20402;-74
2020/12/03 00:18:34;;;;;;;71.05;40.70;;;0.00;83.10;;;;;;5080017;28;20438;-74
2020/12/03 00:21:02;;;;;;;72.25;38.97;;;-0.10;83.30;;;;;;5079358;28;20434;-75
2020/12/03 00:23:29;;;;;;;68.82;38.28;;;0.00;83.10;;;;;;5091766;28;20459;-74
2020/12/03 00:25:55;;;;;;;69.07;40.08;;;0.00;83.10;;;;;;5087349;28;20422;-74
2020/12/03 00:28:37;;;;;;;69.63;40.13;;;0.10;83.00;;;;;;5090738;28;20487;-74
2020/12/03 00:31:04;;;;;;;70.55;40.13;;;0.00;83.20;;;;;;5089163;28;20402;-74
2020/12/03 00:33:31;;;;;;;68.87;39.87;;;0.00;83.80;;;;;;5090765;28;20472;-75
2020/12/03 00:35:57;;;;;;;70.40;39.63;;;-0.10;84.20;;;;;;5088738;28;20397;-74
2020/12/03 00:38:24;;;;;;;69.07;40.10;;;-0.10;84.50;;;;;;5091672;28;20451;-74
2020/12/03 00:40:54;;;;;;;67.55;39.13;;;-0.10;85.30;;;;;;5087161;28;20788;-75
2020/12/03 00:43:21;;;;;;;71.07;40.28;;;0.00;84.90;;;;;;5090882;28;20410;-75
2020/12/03 00:45:48;;;;;;;68.15;39.38;;;0.00;85.30;;;;;;5086675;28;20463;-74
2020/12/03 00:48:18;;;;;;;72.35;39.92;;;-0.10;85.80;;;;;;5090700;28;20450;-74
2020/12/03 00:50:46;;;;;;;68.47;39.63;;;-0.20;86.60;;;;;;5086261;28;20467;-74
2020/12/03 00:53:14;;;;;;;71.13;40.15;;;-0.20;87.10;;;;;;5090374;28;20453;-74
2020/12/03 00:55:43;;;;;;;72.15;39.92;;;-0.20;87.60;;;;;;5087830;28;20412;-74
2020/12/03 00:58:10;;;;;;;74.47;42.60;;;-0.20;87.90;;;;;;5090298;28;20413;-74
2020/12/03 01:00:36;;;;;;;74.97;42.70;;;-0.20;88.40;;;;;;5091263;28;20406;-74
2020/12/03 01:03:04;;;;;;;77.55;42.03;;;-0.20;88.80;;;;;;5086858;28;20447;-74
2020/12/03 01:05:30;;;;;;;77.20;44.00;;;-0.30;89.10;;;;;;5090355;28;20474;-74
2020/12/03 01:07:57;;;;;;;75.78;42.70;;;-0.30;89.80;;;;;;5101666;28;20400;-74
2020/12/03 01:10:28;;;;;;;72.93;42.42;;;-0.40;90.10;;;;;;5111284;28;20397;-74
2020/12/03 01:12:57;;;;;;;79.32;43.65;;;-0.40;90.40;;;;;;5082732;28;20467;-74
2020/12/03 01:15:24;;;;;;;79.28;45.10;;;-0.30;90.60;;;;;;5069747;28;20481;-75
2020/12/03 01:17:51;;;;;;;77.47;44.07;;;-0.30;90.90;;;;;;5075916;28;20412;-74
2020/12/03 01:20:23;;;;;;;83.45;45.05;;;-0.30;91.00;;;;;;5090738;28;20417;-74
2020/12/03 01:22:52;;;;;;;83.32;46.38;;;-0.40;91.50;;;;;;5086237;28;20876;-74
2020/12/03 01:25:21;;;;;;;84.22;45.65;;;-0.40;91.70;;;;;;5090282;28;20417;-74
2020/12/03 01:27:50;;;;;;;86.67;46.63;;;-0.40;91.70;;;;;;5086337;28;20505;-74
2020/12/03 01:30:18;;;;;;;82.32;45.63;;;-0.50;92.00;;;;;;5090243;28;20459;-74
2020/12/03 01:32:47;;;;;;;84.45;48.00;;;-0.50;92.30;;;;;;5086855;28;20483;-74
2020/12/03 01:35:18;;;;;;;87.30;47.15;;;-0.40;92.80;;;;;;5070236;28;21140;-74
2020/12/03 01:37:46;;;;;;;92.60;48.42;;;-0.30;92.80;;;;;;5070520;28;20392;-74
2020/12/03 01:40:14;;;;;;;79.88;44.08;;;-0.30;92.60;;;;;;5067227;28;20403;-74
2020/12/03 01:42:42;;;;;;;76.22;42.63;;;-0.40;92.60;;;;;;5069246;28;20844;-74
2020/12/03 01:45:46;;;;;;;77.93;43.43;;;-0.50;92.70;;;;;;5083042;28;20475;-75
2020/12/03 01:48:19;;;;;;;78.13;43.43;;;-0.40;92.70;;;;;;5090264;28;20422;-74
2020/12/03 01:50:46;;;;;;;76.53;42.05;;;-0.50;92.80;;;;;;5087265;28;20409;-74
2020/12/03 01:53:16;;;;;;;80.20;42.95;;;-0.50;92.80;;;;;;5089423;28;20423;-74
2020/12/03 01:55:42;;;;;;;79.28;43.83;;;-0.60;93.10;;;;;;5086862;28;20413;-74
2020/12/03 01:58:21;;;;;;;79.47;44.55;;;-0.50;92.90;;;;;;5090518;28;20526;-74
2020/12/03 02:00:48;;;;;;;77.20;43.92;;;-0.60;92.90;;;;;;5085347;28;20459;-74
2020/12/03 02:03:14;;;;;;;80.15;44.90;;;-0.60;93.20;;;;;;5089284;28;20473;-74
2020/12/03 02:05:41;;;;;;;79.27;44.97;;;-0.60;93.00;;;;;;5086026;28;20437;-74
2020/12/03 02:08:07;;;;;;;77.90;43.92;;;-0.70;93.10;;;;;;5089472;28;20483;-75
2020/12/03 02:10:36;;;;;;;79.25;45.03;;;-0.70;93.20;;;;;;5079633;28;20415;-74
2020/12/03 02:13:02;;;;;;;79.80;45.10;;;-0.70;93.20;;;;;;5072340;28;20884;-75
2020/12/03 02:15:29;;;;;;;80.43;45.83;;;-0.70;92.90;;;;;;5070497;28;20407;-74
2020/12/03 02:17:55;;;;;;;77.43;44.93;;;-0.70;93.10;;;;;;5074032;28;20399;-74
2020/12/03 02:20:21;;;;;;;79.55;45.92;;;-0.80;93.20;;;;;;5080760;28;20441;-74
2020/12/03 02:22:48;;;;;;;80.60;44.70;;;-0.70;93.40;;;;;;5084790;28;20913;-74
2020/12/03 02:25:16;;;;;;;83.90;46.70;;;-0.80;93.30;;;;;;5102845;28;20447;-74
2020/12/03 02:27:43;;;;;;;82.78;46.65;;;-0.70;93.70;;;;;;5075317;28;20721;-74
2020/12/03 02:30:14;;;;;;;85.10;47.15;;;-0.70;93.50;;;;;;5073342;28;21119;-74
2020/12/03 02:32:41;;;;;;;84.87;47.67;;;-0.70;93.60;;;;;;5070403;28;20492;-74
2020/12/03 02:35:11;;;;;;;86.68;46.72;;;-0.70;93.60;;;;;;5072821;28;20411;-74
2020/12/03 02:37:37;;;;;;;82.63;46.63;;;-0.80;93.50;;;;;;5082028;28;20505;-74
2020/12/03 02:40:08;;;;;;;89.63;48.83;;;-0.80;93.60;;;;;;5092746;28;20398;-74
2020/12/03 02:42:34;;;;;;;89.13;49.38;;;-0.70;93.90;;;;;;5098061;28;20449;-74
2020/12/03 02:45:01;;;;;;;91.63;48.53;;;-0.70;93.70;;;;;;5113257;28;20411;-74
2020/12/03 02:47:27;;;;;;;85.68;47.33;;;-0.60;93.60;;;;;;5108816;28;20456;-74
2020/12/03 02:49:53;;;;;;;89.03;49.25;;;-0.70;93.30;;;;;;5113230;28;20412;-74
2020/12/03 02:52:23;;;;;;;90.72;48.88;;;-0.70;93.70;;;;;;5108839;28;20405;-74
2020/12/03 02:54:50;;;;;;;97.60;51.23;;;-0.70;93.70;;;;;;5114099;28;20428;-74
2020/12/03 02:57:17;;;;;;;93.40;50.72;;;-0.70;93.80;;;;;;5112883;28;20400;-74
2020/12/03 02:59:44;;;;;;;91.13;50.72;;;-0.70;94.00;;;;;;5089610;28;20474;-74
2020/12/03 03:02:10;;;;;;;97.72;52.15;;;-0.80;94.00;;;;;;5092440;28;20402;-74
2020/12/03 03:04:37;;;;;;;93.75;51.40;;;-0.80;94.20;;;;;;5089186;28;20405;-74
2020/12/03 03:07:04;;;;;;;227.70;125.28;;;-0.90;94.30;;;;;;5092415;28;20398;-74
2020/12/03 03:09:33;;;;;;;130.93;70.90;;;-0.80;94.40;;;;;;5089933;28;20410;-74
2020/12/03 03:12:00;;;;;;;94.70;52.85;;;-0.80;94.40;;;;;;5093467;28;20470;-74
2020/12/03 03:14:27;;;;;;;96.70;51.35;;;-0.80;94.40;;;;;;5090312;28;20426;-74
2020/12/03 03:16:53;;;;;;;86.68;49.60;;;-0.80;94.40;;;;;;5092336;28;21028;-74
2020/12/03 03:19:22;;;;;;;95.00;51.22;;;-0.80;94.20;;;;;;5093632;28;20420;-74
2020/12/03 03:21:52;;;;;;;96.97;51.22;;;-0.80;94.30;;;;;;5098355;28;20407;-74
2020/12/03 03:24:19;;;;;;;89.78;50.00;;;-0.70;94.30;;;;;;5089549;28;20441;-74
2020/12/03 03:26:46;;;;;;;88.35;49.53;;;-0.80;94.30;;;;;;5092745;28;20507;-74
2020/12/03 03:29:15;;;;;;;87.50;49.42;;;-0.80;94.30;;;;;;5092913;28;20420;-74
2020/12/03 03:31:41;;;;;;;89.40;49.58;;;-0.80;94.30;;;;;;5091364;28;20441;-74
2020/12/03 03:34:09;;;;;;;86.47;48.63;;;-0.70;94.30;;;;;;5092477;28;20462;-74
2020/12/03 03:36:37;;;;;;;88.75;50.25;;;-0.70;94.20;;;;;;5071536;28;20469;-74
2020/12/03 03:39:06;;;;;;;88.93;48.53;;;-0.70;94.20;;;;;;5072305;28;20404;-74
2020/12/03 03:41:36;;;;;;;85.43;48.35;;;-0.70;94.20;;;;;;5083825;28;20409;-74
2020/12/03 03:44:02;;;;;;;88.22;49.38;;;-0.80;94.30;;;;;;5091515;28;20845;-74
2020/12/03 03:46:29;;;;;;;91.85;51.15;;;-0.70;94.30;;;;;;5077105;28;20500;-74
2020/12/03 03:48:58;;;;;;;91.33;49.70;;;-0.70;94.20;;;;;;5071568;28;20415;-74
2020/12/03 03:51:24;;;;;;;92.43;49.70;;;-0.70;94.10;;;;;;5076875;28;20410;-74
2020/12/03 03:53:53;;;;;;;89.22;49.58;;;-0.70;94.30;;;;;;5091531;28;20422;-74
2020/12/03 03:56:22;;;;;;;88.32;48.75;;;-0.80;94.30;;;;;;5088268;28;20871;-74
2020/12/03 03:58:48;;;;;;;87.88;48.85;;;-0.80;94.40;;;;;;5091223;28;20440;-74
2020/12/03 04:01:15;;;;;;;91.25;49.20;;;-0.80;94.30;;;;;;5087719;28;20405;-74
2020/12/03 04:03:41;;;;;;;92.50;51.25;;;-0.80;94.30;;;;;;5070823;28;20787;-74
2020/12/03 04:06:07;;;;;;;92.80;50.10;;;-0.80;94.50;;;;;;5071207;28;20506;-74
2020/12/03 04:08:34;;;;;;;90.93;49.15;;;-0.80;94.40;;;;;;5067916;28;20454;-74
2020/12/03 04:11:00;;;;;;;90.72;48.72;;;-0.80;94.30;;;;;;5071066;28;20438;-74
2020/12/03 04:13:26;;;;;;;87.20;48.03;;;-0.80;94.30;;;;;;5082666;28;20495;-74
2020/12/03 04:15:54;;;;;;;88.73;48.80;;;-0.80;94.20;;;;;;5091837;28;20884;-74
2020/12/03 04:18:26;;;;;;;90.43;47.75;;;-0.80;94.30;;;;;;5088288;28;20426;-74
2020/12/03 04:21:05;;;;;;;86.60;47.77;;;-0.80;94.30;;;;;;5090604;28;20473;-74
2020/12/03 04:23:31;;;;;;;84.30;46.65;;;-0.80;94.40;;;;;;5087485;28;20927;-74
2020/12/03 04:25:58;;;;;;;86.93;48.40;;;-0.80;94.30;;;;;;5090591;28;20449;-74
2020/12/03 04:28:24;;;;;;;85.47;48.28;;;-0.80;94.40;;;;;;5086739;28;20414;-74
2020/12/03 04:30:52;;;;;;;85.05;47.47;;;-0.80;94.40;;;;;;5090487;28;20406;-74
2020/12/03 04:33:20;;;;;;;81.03;46.03;;;-0.80;94.30;;;;;;5087294;28;20430;-74
2020/12/03 04:35:47;;;;;;;80.40;46.15;;;-0.80;94.20;;;;;;5090716;28;20866;-74
2020/12/03 04:38:14;;;;;;;80.85;45.28;;;-0.80;94.30;;;;;;5089598;28;20402;-74
2020/12/03 04:40:42;;;;;;;82.43;46.03;;;-0.80;94.20;;;;;;5090553;28;20442;-74
2020/12/03 04:43:26;;;;;;;81.05;45.05;;;-0.80;94.30;;;;;;5091119;28;20449;-74
2020/12/03 04:46:24;;;;;;;78.05;44.03;;;-0.80;94.30;;;;;;5089401;28;20453;-73
2020/12/03 04:49:07;;;;;;;84.43;46.67;;;-0.70;94.20;;;;;;5087403;28;20413;-74
2020/12/03 04:51:43;;;;;;;80.67;46.57;;;-0.80;94.30;;;;;;5091138;28;20406;-74
2020/12/03 04:54:45;;;;;;;82.43;44.95;;;-0.80;94.40;;;;;;5087114;28;20425;-74
2020/12/03 04:57:22;;;;;;;80.37;44.93;;;-0.80;94.40;;;;;;5091192;28;20499;-74
2020/12/03 05:00:12;;;;;;;81.38;44.78;;;-0.90;94.40;;;;;;5087693;28;20402;-74
2020/12/03 05:03:00;;;;;;;80.20;43.55;;;-0.90;94.40;;;;;;5091275;28;20426;-73
2020/12/03 05:05:46;;;;;;;86.80;46.28;;;-0.90;94.40;;;;;;5087773;28;20882;-74
2020/12/03 05:08:30;;;;;;;80.03;44.60;;;-0.90;94.40;;;;;;5091300;28;20393;-73
2020/12/03 05:10:56;;;;;;;91.72;48.00;;;-0.90;94.50;;;;;;5085636;28;20406;-76
2020/12/03 05:13:29;;;;;;;83.47;45.72;;;-1.00;94.50;;;;;;5091181;28;20524;-73
2020/12/03 05:16:07;;;;;;;83.80;43.97;;;-1.00;94.50;;;;;;5079637;28;20427;-74
2020/12/03 05:18:43;;;;;;;83.28;44.80;;;-1.00;94.50;;;;;;5069471;28;20795;-74
2020/12/03 05:21:20;;;;;;;87.28;46.17;;;-1.00;94.50;;;;;;5070647;28;20451;-74
2020/12/03 05:23:46;;;;;;;80.57;44.33;;;-1.10;94.40;;;;;;5078143;28;20416;-74
2020/12/03 05:26:20;;;;;;;87.40;45.60;;;-1.10;94.30;;;;;;5085271;28;20488;-74
2020/12/03 05:28:57;;;;;;;83.70;44.88;;;-1.10;94.40;;;;;;5088025;28;20939;-74
2020/12/03 05:31:34;;;;;;;85.05;46.13;;;-1.10;94.30;;;;;;5069113;28;20446;-74
2020/12/03 05:34:10;;;;;;;95.55;51.35;;;-1.20;94.30;;;;;;5090543;28;20468;-73
2020/12/03 05:36:40;;;;;;;103.68;53.25;;;-1.20;94.40;;;;;;5086240;28;20413;-74
2020/12/03 05:39:13;;;;;;;99.70;51.88;;;-1.20;94.60;;;;;;5075309;28;20413;-73
2020/12/03 05:41:53;;;;;;;103.03;53.47;;;-1.30;94.40;;;;;;5090707;28;20459;-73
2020/12/03 05:44:34;;;;;;;103.22;52.65;;;-1.40;94.60;;;;;;5069498;28;20411;-73
2020/12/03 05:47:18;;;;;;;97.07;50.85;;;-1.40;94.70;;;;;;5069002;28;20416;-73
2020/12/03 05:49:51;;;;;;;90.72;48.63;;;-1.30;94.50;;;;;;5070341;28;20416;-73
2020/12/03 05:52:21;;;;;;;86.90;46.28;;;-1.30;94.40;;;;;;5069217;28;20411;-73
2020/12/03 05:55:09;;;;;;;84.72;43.92;;;-1.40;94.40;;;;;;5087843;28;20464;-73
2020/12/03 05:57:42;;;;;;;84.15;44.67;;;-1.40;94.40;;;;;;5089382;28;20490;-76
2020/12/03 06:00:14;;;;;;;82.87;43.57;;;-1.40;94.40;;;;;;5069330;28;20439;-74
2020/12/03 06:02:55;;;;;;;88.10;46.17;;;-1.50;94.40;;;;;;5085138;28;20430;-73
2020/12/03 06:05:33;;;;;;;87.75;45.85;;;-1.50;94.30;;;;;;5067587;28;20443;-73
2020/12/03 06:08:18;;;;;;;87.68;46.20;;;-1.50;94.20;;;;;;5069288;28;20396;-73
2020/12/03 06:11:22;;;;;;;96.30;49.33;;;-1.50;94.10;;;;;;5069772;28;20414;-73
2020/12/03 06:14:14;;;;;;;96.83;51.87;;;-1.60;94.30;;;;;;5067754;28;20485;-73
2020/12/03 06:16:55;;;;;;;95.65;49.35;;;-1.60;94.30;;;;;;5090345;28;20471;-73
2020/12/03 06:19:31;;;;;;;91.65;48.05;;;-1.60;94.50;;;;;;5082228;28;20497;-73
2020/12/03 06:22:23;;;;;;;91.18;47.85;;;-1.70;94.00;;;;;;5085304;28;20878;-73
2020/12/03 06:24:59;;;;;;;87.03;46.92;;;-1.70;94.20;;;;;;5079556;28;20469;-73
2020/12/03 06:28:03;;;;;;;86.05;48.08;;;-1.70;94.30;;;;;;5069415;28;20473;-73
2020/12/03 06:30:39;;;;;;;93.63;47.88;;;-1.60;94.50;;;;;;5066224;28;21049;-74
2020/12/03 06:33:40;;;;;;;87.00;46.40;;;-1.60;94.20;;;;;;5068607;28;20440;-74
2020/12/03 06:36:25;;;;;;;82.88;44.75;;;-1.70;94.30;;;;;;5066371;28;20856;-73
2020/12/03 06:39:03;;;;;;;82.68;44.65;;;-1.70;94.50;;;;;;5068996;28;20485;-73
2020/12/03 06:41:50;;;;;;;85.50;44.50;;;-1.70;94.10;;;;;;5065690;28;20457;-73
2020/12/03 06:44:40;;;;;;;87.57;46.10;;;-1.60;94.10;;;;;;5069639;28;20541;-74
2020/12/03 06:47:24;;;;;;;86.07;45.80;;;-1.70;94.20;;;;;;5066257;28;20404;-73
2020/12/03 06:50:12;;;;;;;88.05;47.08;;;-1.70;94.10;;;;;;5069376;28;21110;-73
2020/12/03 06:53:13;;;;;;;89.70;48.20;;;-1.60;94.00;;;;;;5069062;28;20944;-73
2020/12/03 06:56:17;;;;;;;77.78;41.47;;;-1.60;93.70;;;;;;5068866;28;20416;-73
2020/12/03 06:59:19;;;;;;;90.20;47.92;;;-1.60;93.30;;;;;;5084571;28;20406;-73
2020/12/03 07:01:48;;;;;;;84.13;46.13;;;-1.60;93.80;;;;;;5085819;28;20412;-73
2020/12/03 07:04:52;;;;;;;83.30;44.33;;;-1.50;93.70;;;;;;5073503;28;20478;-73
2020/12/03 07:07:56;;;;;;;81.50;43.73;;;-1.50;93.90;;;;;;5069287;28;20416;-73
2020/12/03 07:10:44;;;;;;;71.13;39.10;;;-1.50;94.00;;;;;;5073122;28;20481;-73
2020/12/03 07:13:44;;;;;;;75.82;40.17;;;-1.50;93.90;;;;;;5069512;28;20412;-73
2020/12/03 07:16:29;;;;;;;78.90;43.47;;;-1.40;93.80;;;;;;5087891;28;20479;-73
2020/12/03 07:19:26;;;;;;;77.50;42.27;;;-1.40;93.90;;;;;;5074694;28;20850;-73
2020/12/03 07:22:20;;;;;;;72.15;40.45;;;-1.40;93.90;;;;;;5087077;28;20418;-73
2020/12/03 07:24:49;;;;;;;77.03;39.92;;;-1.40;93.90;;;;;;5101124;28;20417;-73
2020/12/03 07:27:52;;;;;;;79.90;40.55;;;-1.40;93.80;;;;;;5108102;28;20396;-73
2020/12/03 07:30:35;;;;;;;78.27;41.00;;;-1.30;93.70;;;;;;5113518;28;20478;-74
2020/12/03 07:33:19;;;;;;;76.88;40.58;;;-1.20;93.70;;;;;;5090682;28;20398;-74
2020/12/03 07:36:10;;;;;;;76.53;39.92;;;-1.20;93.50;;;;;;5075308;28;20781;-73
2020/12/03 07:38:41;;;;;;;76.35;38.50;;;-1.10;93.50;;;;;;5091830;28;20412;-73
2020/12/03 07:41:18;;;;;;;67.05;37.08;;;-1.00;93.40;;;;;;5095287;28;20451;-74
2020/12/03 07:43:45;;;;;;;68.70;37.60;;;-1.00;93.40;;;;;;5109362;28;20479;-73
2020/12/03 07:46:24;;;;;;;70.13;38.65;;;-0.90;93.20;;;;;;5095282;28;20801;-74
2020/12/03 07:48:50;;;;;;;72.33;38.90;;;-0.90;93.40;;;;;;5112977;28;20446;-74
2020/12/03 07:51:18;;;;;;;69.53;38.75;;;-0.80;93.50;;;;;;5089660;28;20544;-74
2020/12/03 07:53:46;;;;;;;67.20;37.08;;;-0.80;93.40;;;;;;5074887;28;20539;-74
2020/12/03 07:56:27;;;;;;;65.82;37.42;;;-0.70;93.10;;;;;;5105923;28;20428;-74
2020/12/03 07:58:54;;;;;;;66.18;37.63;;;-0.70;92.90;;;;;;5094912;28;20400;-74
2020/12/03 08:01:29;;;;;;;67.43;37.70;;;-0.60;92.90;;;;;;5092496;28;20493;-73
2020/12/03 08:04:08;;;;;;;67.95;38.03;;;-0.60;92.90;;;;;;5100320;28;20741;-74
2020/12/03 08:06:37;;;;;;;67.53;38.55;;;-0.60;92.70;;;;;;5108515;28;20396;-74
2020/12/03 08:09:04;;;;;;;71.30;39.67;;;-0.60;92.80;;;;;;5094607;28;20412;-74
2020/12/03 08:12:05;;;;;;;68.53;38.70;;;-0.60;92.90;;;;;;5089829;28;20454;-74
2020/12/03 08:14:36;;;;;;;68.40;38.55;;;-0.60;92.70;;;;;;5094230;28;20477;-73
2020/12/03 08:17:25;;;;;;;71.70;38.20;;;-0.50;92.60;;;;;;5077141;28;20939;-73
2020/12/03 08:20:03;;;;;;;73.17;40.30;;;-0.50;92.50;;;;;;5089434;28;20408;-73
2020/12/03 08:22:51;;;;;;;72.13;40.38;;;-0.40;92.60;;;;;;5091354;28;20409;-74
2020/12/03 08:25:17;;;;;;;71.18;39.63;;;-0.40;92.50;;;;;;5093793;28;20419;-73
2020/12/03 08:27:52;;;;;;;71.40;37.38;;;-0.30;92.40;;;;;;5090365;28;20412;-74
2020/12/03 08:30:52;;;;;;;71.15;40.10;;;-0.20;92.20;;;;;;5093998;28;20400;-74
2020/12/03 08:33:28;;;;;;;69.43;38.72;;;-0.20;92.20;;;;;;5094248;28;20452;-74
2020/12/03 08:35:59;;;;;;;71.45;40.22;;;-0.20;91.90;;;;;;5111868;28;20392;-73
2020/12/03 08:38:34;;;;;;;70.07;39.03;;;-0.10;91.90;;;;;;5090322;28;20412;-73
2020/12/03 08:41:06;;;;;;;69.47;38.47;;;0.10;91.50;;;;;;5111594;28;20411;-74
2020/12/03 08:43:41;;;;;;;65.80;37.97;;;0.10;91.40;;;;;;5091791;28;20405;-74
2020/12/03 08:46:17;;;;;;;67.95;38.67;;;0.10;91.60;;;;;;5111687;28;20396;-73
2020/12/03 08:48:45;;;;;;;69.20;37.95;;;0.10;91.70;;;;;;5083005;28;20421;-73
2020/12/03 08:51:13;;;;;;;64.72;36.92;;;0.10;91.60;;;;;;5104148;28;20408;-76
2020/12/03 08:53:45;;;;;;;66.00;37.08;;;0.10;91.60;;;;;;5089852;28;20518;-76
2020/12/03 08:56:17;;;;;;;67.20;37.80;;;0.20;92.00;;;;;;5093682;28;20400;-73
2020/12/03 08:59:08;;;;;;;63.83;36.53;;;0.20;91.40;;;;;;5107887;28;20520;-73
2020/12/03 09:01:45;;;;;;;62.58;35.80;;;0.20;91.40;;;;;;5099149;28;20795;-72
2020/12/03 09:04:12;;;;;;;61.65;35.38;;;0.40;91.40;;;;;;5107663;28;20416;-72
2020/12/03 09:06:49;;;;;;;60.95;35.45;;;0.40;90.80;;;;;;5093398;28;20404;-72
2020/12/03 09:09:20;;;;;;;60.50;34.47;;;0.40;90.50;;;;;;5107721;28;20459;-73
2020/12/03 09:11:47;;;;;;;58.75;35.33;;;0.40;90.60;;;;;;5093217;28;20444;-73
2020/12/03 09:14:17;;;;;;;62.97;35.67;;;0.50;90.50;;;;;;5090183;28;20478;-73
2020/12/03 09:16:46;;;;;;;59.53;34.23;;;0.60;90.60;;;;;;5093533;28;20454;-74
2020/12/03 09:19:22;;;;;;;59.15;34.25;;;0.70;90.20;;;;;;5096188;27;20411;-73
2020/12/03 09:21:50;;;;;;;60.45;33.45;;;0.90;90.00;;;;;;5098506;28;20417;-72
2020/12/03 09:24:22;;;;;;;56.23;33.90;;;1.10;89.30;;;;;;5087955;28;22104;-73
2020/12/03 09:26:49;;;;;;;54.58;33.58;;;1.20;88.20;;;;;;5090220;28;20480;-73
2020/12/03 09:29:18;;;;;;;62.42;36.50;;;1.30;88.00;;;;;;5108705;28;20404;-74
2020/12/03 09:32:04;;;;;;;57.95;34.42;;;1.40;87.40;;;;;;5105442;28;20583;-73
2020/12/03 09:34:35;;;;;;;59.42;36.42;;;1.70;87.80;;;;;;5109590;28;20429;-73
2020/12/03 09:37:03;;;;;;;58.83;35.30;;;2.00;85.10;;;;;;5091396;28;20466;-73
2020/12/03 09:39:32;;;;;;;59.83;36.53;;;2.30;84.30;;;;;;5110580;28;20397;-73
2020/12/03 09:42:00;;;;;;;58.25;35.35;;;2.30;82.70;;;;;;5087970;28;20467;-75
2020/12/03 09:44:27;;;;;;;58.10;33.78;;;2.40;83.60;;;;;;5090358;28;20433;-74
2020/12/03 09:46:57;;;;;;;54.13;31.58;;;2.50;81.60;;;;;;5084385;28;20438;-73
2020/12/03 09:49:24;;;;;;;53.83;31.38;;;2.50;82.10;;;;;;5110359;28;20793;-74
2020/12/03 09:52:08;;;;;;;59.65;33.55;;;2.50;81.80;;;;;;5094318;28;20414;-73
2020/12/03 09:54:38;;;;;;;55.30;32.42;;;2.60;82.10;;;;;;5090095;28;20487;-73
2020/12/03 09:57:05;;;;;;;53.10;31.95;;;2.70;82.10;;;;;;5080214;28;20400;-74
2020/12/03 09:59:32;;;;;;;50.80;30.80;;;2.70;81.10;;;;;;5092641;28;20412;-73
2020/12/03 10:02:11;;;;;;;51.58;30.25;;;2.50;81.20;;;;;;5103727;28;20415;-73
2020/12/03 10:04:56;;;;;;;49.22;30.73;;;2.40;81.90;;;;;;5092529;28;20485;-74
2020/12/03 10:07:29;;;;;;;52.33;30.55;;;2.40;82.70;;;;;;5114938;28;20395;-74
2020/12/03 10:10:22;;;;;;;48.10;30.00;;;2.30;82.30;;;;;;5131171;28;20403;-74
2020/12/03 10:13:16;;;;;;;53.05;31.65;;;2.40;82.60;;;;;;5099385;28;20790;-74
2020/12/03 10:16:07;;;;;;;57.53;31.80;;;2.60;83.10;;;;;;5097973;28;20492;-73
2020/12/03 10:18:58;;;;;;;55.35;32.90;;;2.80;82.70;;;;;;5071635;28;20402;-74
2020/12/03 10:21:30;;;;;;;54.40;31.63;;;3.00;80.50;;;;;;5083242;28;20450;-74
2020/12/03 10:24:06;;;;;;;61.13;36.25;;;3.20;80.30;;;;;;5088982;28;20408;-74
2020/12/03 10:26:36;;;;;;;56.75;33.85;;;3.40;79.90;;;;;;5088667;28;20853;-74
2020/12/03 10:29:30;;;;;;;54.23;33.33;;;3.40;80.10;;;;;;5087104;28;20870;-74
2020/12/03 10:32:11;;;;;;;78.60;35.83;;;3.60;79.70;;;;;;5089636;28;20495;-74
2020/12/03 10:34:51;;;;;;;119.03;44.60;;;3.70;79.60;;;;;;5083792;28;21248;-74
2020/12/03 10:37:37;;;;;;;86.50;41.10;;;3.80;79.10;;;;;;5076228;28;20433;-74
2020/12/03 10:40:21;;;;;;;82.80;39.93;;;3.80;78.90;;;;;;5105169;28;20396;-74
2020/12/03 10:43:27;;;;;;;99.63;54.75;;;3.70;79.60;;;;;;5096011;28;20396;-74
2020/12/03 10:45:58;;;;;;;89.57;45.77;;;3.50;80.10;;;;;;5050909;28;20402;-75
2020/12/03 10:48:35;;;;;;;639.83;190.23;;;3.50;80.30;;;;;;5075582;28;20491;-74
2020/12/03 10:51:08;;;;;;;238.32;78.30;;;3.50;82.50;;;;;;5092271;28;20747;-74
2020/12/03 10:53:37;;;;;;;99.03;43.45;;;3.60;82.40;;;;;;5113451;28;20524;-74
2020/12/03 10:56:04;;;;;;;72.03;40.45;;;3.70;84.80;;;;;;5110325;28;20412;-74
2020/12/03 10:58:46;;;;;;;69.85;41.38;;;3.80;80.50;;;;;;5107335;28;20550;-74
2020/12/03 11:01:28;;;;;;;66.88;40.13;;;3.70;80.30;;;;;;5087884;28;20465;-74
2020/12/03 11:03:58;;;;;;;155.13;117.82;;;3.60;81.20;;;;;;5095799;28;20419;-74
2020/12/03 11:06:27;;;;;;;98.18;67.95;;;3.50;80.90;;;;;;5110042;28;20513;-74
2020/12/03 11:08:56;;;;;;;71.75;42.17;;;3.50;81.70;;;;;;5112793;28;20521;-74
2020/12/03 11:11:24;;;;;;;66.88;38.78;;;3.40;81.50;;;;;;5092524;28;20537;-74
2020/12/03 11:13:53;;;;;;;63.97;38.50;;;3.40;81.50;;;;;;5113571;28;20420;-74
2020/12/03 11:16:26;;;;;;;61.78;37.13;;;3.20;81.70;;;;;;5110387;28;20404;-74
2020/12/03 11:19:16;;;;;;;66.43;38.83;;;3.10;82.00;;;;;;5100487;27;20867;-74
2020/12/03 11:21:55;;;;;;;64.38;38.17;;;3.00;82.90;;;;;;5110315;28;20820;-74
2020/12/03 11:24:48;;;;;;;63.38;38.42;;;3.00;83.10;;;;;;5113300;28;20453;-74
2020/12/03 11:27:19;;;;;;;63.93;39.17;;;3.00;83.00;;;;;;5108809;28;20477;-74
2020/12/03 11:29:46;;;;;;;60.53;36.95;;;3.00;83.10;;;;;;5095306;28;20412;-74
2020/12/03 11:32:23;;;;;;;57.97;35.10;;;3.00;83.30;;;;;;5091376;28;20890;-74
2020/12/03 11:34:50;;;;;;;62.00;35.35;;;3.00;83.20;;;;;;5095332;28;20454;-74
2020/12/03 11:37:24;;;;;;;54.72;34.25;;;3.00;83.00;;;;;;5091415;28;20891;-74
2020/12/03 11:40:02;;;;;;;57.92;35.40;;;3.00;83.30;;;;;;5094785;28;20478;-74
2020/12/03 11:42:38;;;;;;;59.15;35.38;;;2.90;83.50;;;;;;5091728;28;20404;-75
2020/12/03 11:50:22;;;;;;;60.88;37.28;;;2.90;84.50;;;;;;5112872;28;20424;-74
2020/12/03 11:52:49;;;;;;;65.05;38.03;;;3.00;84.40;;;;;;5109028;28;20412;-74
2020/12/03 11:55:25;;;;;;;64.97;38.70;;;3.00;84.00;;;;;;5094463;28;20454;-74
2020/12/03 11:58:02;;;;;;;65.18;38.83;;;3.10;83.80;;;;;;5091453;28;20466;-74
2020/12/03 12:00:32;;;;;;;62.63;37.78;;;3.20;83.60;;;;;;5094543;28;20469;-74
2020/12/03 12:03:02;;;;;;;65.15;38.47;;;3.20;83.60;;;;;;5093239;28;20400;-74
2020/12/03 12:10:40;;;;;;;63.65;39.75;;;3.30;82.70;;;;;;5109003;28;20481;-74
2020/12/03 12:13:08;;;;;;;65.88;39.63;;;3.40;82.20;;;;;;5112316;28;20418;-74
2020/12/03 12:15:37;;;;;;;65.38;39.42;;;3.30;81.70;;;;;;5090890;28;20505;-74
2020/12/03 12:18:06;;;;;;;65.37;39.53;;;3.30;82.10;;;;;;5083568;28;20450;-74
2020/12/03 12:20:32;;;;;;;66.97;38.47;;;3.30;82.10;;;;;;5101259;28;20404;-74
2020/12/03 12:22:58;;;;;;;66.07;39.00;;;3.40;82.00;;;;;;5097751;28;20797;-75
2020/12/03 12:25:25;;;;;;;64.55;39.00;;;3.50;81.60;;;;;;5093299;28;20431;-74
2020/12/03 12:27:53;;;;;;;62.85;39.33;;;3.70;81.10;;;;;;5093971;28;20455;-74
2020/12/03 12:30:23;;;;;;;64.35;38.97;;;3.70;80.10;;;;;;5108241;28;20416;-74
2020/12/03 12:32:49;;;;;;;69.87;41.27;;;3.60;80.50;;;;;;5112109;28;20502;-74
2020/12/03 12:35:18;;;;;;;64.63;39.25;;;3.60;80.00;;;;;;5090377;28;20477;-74
2020/12/03 12:37:44;;;;;;;63.92;38.50;;;3.50;80.60;;;;;;5112207;28;20404;-74
2020/12/03 12:40:11;;;;;;;61.97;37.13;;;3.50;79.80;;;;;;5109087;28;20477;-74
2020/12/03 12:42:38;;;;;;;65.32;38.13;;;3.60;80.80;;;;;;5111859;28;20393;-74
2020/12/03 12:45:04;;;;;;;64.38;38.22;;;3.80;79.80;;;;;;5111183;28;20419;-74
2020/12/03 12:47:31;;;;;;;63.83;38.40;;;4.00;79.10;;;;;;5108361;28;20404;-74
2020/12/03 12:50:00;;;;;;;65.57;39.63;;;4.30;78.40;;;;;;5093546;28;20837;-74
2020/12/03 12:52:28;;;;;;;70.22;41.17;;;4.40;77.70;;;;;;5107109;28;20803;-74
2020/12/03 12:54:58;;;;;;;63.72;39.30;;;4.70;78.80;;;;;;5093550;28;20456;-75
2020/12/03 12:57:27;;;;;;;61.53;38.38;;;4.80;75.40;;;;;;5089042;28;20470;-75
2020/12/03 12:59:54;;;;;;;63.63;38.47;;;5.30;75.00;;;;;;5111346;28;20840;-75
2020/12/03 13:02:20;;;;;;;61.47;38.55;;;5.70;72.30;;;;;;5099631;28;20745;-74
2020/12/03 13:04:47;;;;;;;60.70;38.28;;;5.90;71.70;;;;;;5073553;28;20410;-75
2020/12/03 13:07:15;;;;;;;61.28;37.15;;;6.20;70.40;;;;;;5093219;28;20428;-75
2020/12/03 13:09:45;;;;;;;71.95;40.30;;;6.40;70.10;;;;;;5111397;28;20393;-75
2020/12/03 13:12:11;;;;;;;80.40;47.55;;;6.50;68.90;;;;;;5088289;28;20466;-75
2020/12/03 13:14:41;;;;;;;79.88;48.08;;;6.50;69.20;;;;;;5090752;28;20844;-74